sensor_id;sensor_type;location;lat;lon;timestamp;P1;durP1;ratioP1;P2;durP2;ratioP2
25365;SDS011;13315;48.274;-1.900;2024-02-15T00:00:12;19.80;;;18.50;;
25365;SDS011;13315;48.274;-1.900;2024-02-15T00:02:42;21.00;;;19.60;;
25365;SDS011;13315;48.274;-1.900;2024-02-15T00:05:09;21.10;;;19.80;;
25365;SDS011;13315;48.274;-1.900;2024-02-15T00:07:36;21.73;;;20.23;;
25365;SDS011;13315;48.274;-1.900;2024-02-15T00:10:02;21.08;;;19.65;;
25365;SDS011;13315;48.274;-1.900;2024-02-15T00:12:29;4.18;;;3.97;;
25365;SDS011;13315;48.274;-1.900;2024-02-15T00:14:55;5.10;;;4.70;;
25365;SDS011;13315;48.274;-1.900;2024-02-15T00:17:24;4.68;;;4.38;;
25365;SDS011;13315;48.274;-1.900;2024-02-15T00:19:52;4.05;;;3.85;;
25365;SDS011;13315;48.274;-1.900;2024-02-15T00:22:18;4.13;;;3.92;;
25365;SDS011;13315;48.274;-1.900;2024-02-15T00:24:46;5.32;;;4.40;;
25365;SDS011;13315;48.274;-1.900;2024-02-15T00:27:14;3.80;;;3.60;;
25365;SDS011;13315;48.274;-1.900;2024-02-15T00:29:40;4.45;;;4.15;;
25365;SDS011;13315;48.274;-1.900;2024-02-15T00:32:08;4.97;;;4.57;;
25365;SDS011;13315;48.274;-1.900;2024-02-15T00:34:35;3.58;;;3.38;;
25365;SDS011;13315;48.274;-1.900;2024-02-15T00:37:03;4.88;;;4.68;;
25365;SDS011;13315;48.274;-1.900;2024-02-15T00:39:30;4.90;;;4.60;;
25365;SDS011;13315;48.274;-1.900;2024-02-15T00:41:57;4.10;;;3.90;;
25365;SDS011;13315;48.274;-1.900;2024-02-15T00:44:25;6.35;;;4.30;;
25365;SDS011;13315;48.274;-1.900;2024-02-15T00:46:51;4.70;;;4.40;;
25365;SDS011;13315;48.274;-1.900;2024-02-15T00:49:17;4.85;;;4.55;;
25365;SDS011;13315;48.274;-1.900;2024-02-15T00:51:47;4.43;;;4.13;;
25365;SDS011;13315;48.274;-1.900;2024-02-15T00:54:13;5.10;;;4.80;;
25365;SDS011;13315;48.274;-1.900;2024-02-15T00:56:40;4.25;;;4.05;;
25365;SDS011;13315;48.274;-1.900;2024-02-15T00:59:06;3.88;;;3.67;;
25365;SDS011;13315;48.274;-1.900;2024-02-15T01:01:32;4.32;;;4.10;;
25365;SDS011;13315;48.274;-1.900;2024-02-15T01:03:58;4.65;;;4.35;;
25365;SDS011;13315;48.274;-1.900;2024-02-15T01:06:24;4.35;;;4.05;;
25365;SDS011;13315;48.274;-1.900;2024-02-15T01:08:50;4.40;;;4.00;;
25365;SDS011;13315;48.274;-1.900;2024-02-15T01:11:16;4.43;;;4.22;;
25365;SDS011;13315;48.274;-1.900;2024-02-15T01:13:43;4.88;;;4.57;;
25365;SDS011;13315;48.274;-1.900;2024-02-15T01:16:09;3.83;;;3.63;;
25365;SDS011;13315;48.274;-1.900;2024-02-15T01:18:35;4.65;;;4.35;;
25365;SDS011;13315;48.274;-1.900;2024-02-15T01:21:02;4.18;;;3.97;;
25365;SDS011;13315;48.274;-1.900;2024-02-15T01:23:29;4.53;;;4.22;;
25365;SDS011;13315;48.274;-1.900;2024-02-15T01:25:55;5.05;;;4.65;;
25365;SDS011;13315;48.274;-1.900;2024-02-15T01:28:22;4.68;;;4.22;;
25365;SDS011;13315;48.274;-1.900;2024-02-15T01:30:48;4.15;;;3.55;;
25365;SDS011;13315;48.274;-1.900;2024-02-15T01:33:15;5.35;;;3.90;;
25365;SDS011;13315;48.274;-1.900;2024-02-15T01:35:42;3.70;;;3.50;;
25365;SDS011;13315;48.274;-1.900;2024-02-15T01:38:08;3.85;;;3.55;;
25365;SDS011;13315;48.274;-1.900;2024-02-15T01:40:35;4.60;;;4.40;;
25365;SDS011;13315;48.274;-1.900;2024-02-15T01:43:01;4.38;;;4.10;;
25365;SDS011;13315;48.274;-1.900;2024-02-15T01:45:27;4.47;;;4.18;;
25365;SDS011;13315;48.274;-1.900;2024-02-15T01:47:53;4.80;;;4.50;;
25365;SDS011;13315;48.274;-1.900;2024-02-15T01:50:21;4.78;;;4.47;;
25365;SDS011;13315;48.274;-1.900;2024-02-15T01:52:47;3.72;;;3.53;;
25365;SDS011;13315;48.274;-1.900;2024-02-15T01:55:15;3.63;;;3.42;;
25365;SDS011;13315;48.274;-1.900;2024-02-15T01:57:46;4.75;;;4.45;;
25365;SDS011;13315;48.274;-1.900;2024-02-15T02:00:14;4.25;;;4.05;;
25365;SDS011;13315;48.274;-1.900;2024-02-15T02:02:41;4.50;;;4.10;;
25365;SDS011;13315;48.274;-1.900;2024-02-15T02:05:08;5.35;;;5.00;;
25365;SDS011;13315;48.274;-1.900;2024-02-15T02:07:34;6.25;;;5.40;;
25365;SDS011;13315;48.274;-1.900;2024-02-15T02:10:00;4.82;;;4.53;;
25365;SDS011;13315;48.274;-1.900;2024-02-15T02:12:27;5.15;;;4.75;;
25365;SDS011;13315;48.274;-1.900;2024-02-15T02:14:53;4.97;;;4.68;;
25365;SDS011;13315;48.274;-1.900;2024-02-15T02:17:20;4.40;;;4.20;;
25365;SDS011;13315;48.274;-1.900;2024-02-15T02:19:47;5.05;;;4.82;;
25365;SDS011;13315;48.274;-1.900;2024-02-15T02:22:16;4.22;;;4.03;;
25365;SDS011;13315;48.274;-1.900;2024-02-15T02:27:28;4.32;;;3.92;;
25365;SDS011;13315;48.274;-1.900;2024-02-15T02:29:55;4.85;;;4.50;;
25365;SDS011;13315;48.274;-1.900;2024-02-15T02:32:22;3.88;;;3.67;;
25365;SDS011;13315;48.274;-1.900;2024-02-15T02:34:48;4.45;;;4.25;;
25365;SDS011;13315;48.274;-1.900;2024-02-15T02:37:14;5.15;;;4.85;;
25365;SDS011;13315;48.274;-1.900;2024-02-15T02:39:40;4.93;;;4.72;;
25365;SDS011;13315;48.274;-1.900;2024-02-15T02:42:08;4.90;;;4.60;;
25365;SDS011;13315;48.274;-1.900;2024-02-15T02:44:34;6.03;;;5.72;;
25365;SDS011;13315;48.274;-1.900;2024-02-15T02:47:00;4.53;;;4.22;;
25365;SDS011;13315;48.274;-1.900;2024-02-15T02:49:26;6.47;;;6.03;;
25365;SDS011;13315;48.274;-1.900;2024-02-15T02:51:52;5.10;;;4.70;;
25365;SDS011;13315;48.274;-1.900;2024-02-15T02:54:18;6.43;;;5.28;;
25365;SDS011;13315;48.274;-1.900;2024-02-15T02:56:44;4.70;;;4.50;;
25365;SDS011;13315;48.274;-1.900;2024-02-15T02:59:10;5.85;;;5.45;;
25365;SDS011;13315;48.274;-1.900;2024-02-15T03:01:37;4.60;;;4.30;;
25365;SDS011;13315;48.274;-1.900;2024-02-15T03:04:05;4.90;;;4.60;;
25365;SDS011;13315;48.274;-1.900;2024-02-15T03:06:31;5.30;;;5.00;;
25365;SDS011;13315;48.274;-1.900;2024-02-15T03:08:57;4.50;;;4.20;;
25365;SDS011;13315;48.274;-1.900;2024-02-15T03:11:23;4.60;;;4.30;;
25365;SDS011;13315;48.274;-1.900;2024-02-15T03:13:49;5.65;;;5.25;;
25365;SDS011;13315;48.274;-1.900;2024-02-15T03:16:15;5.70;;;5.30;;
25365;SDS011;13315;48.274;-1.900;2024-02-15T03:18:42;4.65;;;4.35;;
25365;SDS011;13315;48.274;-1.900;2024-02-15T03:21:08;6.35;;;5.93;;
25365;SDS011;13315;48.274;-1.900;2024-02-15T03:23:36;5.07;;;4.78;;
25365;SDS011;13315;48.274;-1.900;2024-02-15T03:26:02;5.05;;;4.75;;
25365;SDS011;13315;48.274;-1.900;2024-02-15T03:28:31;8.73;;;4.88;;
25365;SDS011;13315;48.274;-1.900;2024-02-15T03:30:57;4.80;;;4.40;;
25365;SDS011;13315;48.274;-1.900;2024-02-15T03:33:25;5.03;;;4.63;;
25365;SDS011;13315;48.274;-1.900;2024-02-15T03:35:57;5.32;;;5.03;;
25365;SDS011;13315;48.274;-1.900;2024-02-15T03:38:26;6.95;;;6.43;;
25365;SDS011;13315;48.274;-1.900;2024-02-15T03:40:54;6.43;;;6.05;;
25365;SDS011;13315;48.274;-1.900;2024-02-15T03:43:21;7.43;;;6.93;;
25365;SDS011;13315;48.274;-1.900;2024-02-15T03:45:48;6.07;;;5.78;;
25365;SDS011;13315;48.274;-1.900;2024-02-15T03:48:14;5.35;;;4.85;;
25365;SDS011;13315;48.274;-1.900;2024-02-15T03:50:40;5.50;;;5.10;;
25365;SDS011;13315;48.274;-1.900;2024-02-15T03:53:08;5.55;;;5.20;;
25365;SDS011;13315;48.274;-1.900;2024-02-15T03:55:36;6.18;;;5.72;;
25365;SDS011;13315;48.274;-1.900;2024-02-15T03:58:02;6.95;;;6.57;;
25365;SDS011;13315;48.274;-1.900;2024-02-15T04:00:28;5.53;;;5.32;;
25365;SDS011;13315;48.274;-1.900;2024-02-15T04:02:54;5.15;;;4.85;;
25365;SDS011;13315;48.274;-1.900;2024-02-15T04:05:21;6.25;;;5.75;;
25365;SDS011;13315;48.274;-1.900;2024-02-15T04:07:48;5.65;;;5.35;;
25365;SDS011;13315;48.274;-1.900;2024-02-15T04:10:14;9.13;;;6.72;;
25365;SDS011;13315;48.274;-1.900;2024-02-15T04:12:43;7.28;;;6.78;;
25365;SDS011;13315;48.274;-1.900;2024-02-15T04:15:09;5.82;;;5.43;;
25365;SDS011;13315;48.274;-1.900;2024-02-15T04:17:41;5.70;;;5.45;;
25365;SDS011;13315;48.274;-1.900;2024-02-15T04:20:09;4.97;;;4.68;;
25365;SDS011;13315;48.274;-1.900;2024-02-15T04:22:37;6.40;;;5.93;;
25365;SDS011;13315;48.274;-1.900;2024-02-15T04:25:06;5.75;;;5.35;;
25365;SDS011;13315;48.274;-1.900;2024-02-15T04:27:41;5.20;;;4.90;;
25365;SDS011;13315;48.274;-1.900;2024-02-15T04:30:07;6.80;;;6.03;;
25365;SDS011;13315;48.274;-1.900;2024-02-15T04:32:35;6.47;;;6.10;;
25365;SDS011;13315;48.274;-1.900;2024-02-15T04:35:01;6.60;;;6.07;;
25365;SDS011;13315;48.274;-1.900;2024-02-15T04:37:28;5.45;;;5.00;;
25365;SDS011;13315;48.274;-1.900;2024-02-15T04:39:57;5.28;;;4.97;;
25365;SDS011;13315;48.274;-1.900;2024-02-15T04:42:24;6.10;;;5.30;;
25365;SDS011;13315;48.274;-1.900;2024-02-15T04:44:52;5.15;;;4.93;;
25365;SDS011;13315;48.274;-1.900;2024-02-15T04:47:19;5.45;;;5.15;;
25365;SDS011;13315;48.274;-1.900;2024-02-15T04:49:45;5.13;;;4.82;;
25365;SDS011;13315;48.274;-1.900;2024-02-15T04:52:11;5.97;;;5.43;;
25365;SDS011;13315;48.274;-1.900;2024-02-15T04:54:37;4.55;;;4.35;;
25365;SDS011;13315;48.274;-1.900;2024-02-15T04:57:03;5.55;;;5.20;;
25365;SDS011;13315;48.274;-1.900;2024-02-15T04:59:31;5.70;;;5.30;;
25365;SDS011;13315;48.274;-1.900;2024-02-15T05:01:57;4.72;;;4.40;;
25365;SDS011;13315;48.274;-1.900;2024-02-15T05:04:24;5.50;;;5.20;;
25365;SDS011;13315;48.274;-1.900;2024-02-15T05:06:50;4.50;;;4.20;;
25365;SDS011;13315;48.274;-1.900;2024-02-15T05:09:17;4.25;;;4.05;;
25365;SDS011;13315;48.274;-1.900;2024-02-15T05:11:43;4.97;;;4.68;;
25365;SDS011;13315;48.274;-1.900;2024-02-15T05:14:16;5.18;;;4.78;;
25365;SDS011;13315;48.274;-1.900;2024-02-15T05:16:49;5.10;;;4.80;;
25365;SDS011;13315;48.274;-1.900;2024-02-15T05:19:15;5.40;;;5.00;;
25365;SDS011;13315;48.274;-1.900;2024-02-15T05:21:42;6.75;;;4.95;;
25365;SDS011;13315;48.274;-1.900;2024-02-15T05:24:14;5.05;;;4.75;;
25365;SDS011;13315;48.274;-1.900;2024-02-15T05:26:43;4.85;;;4.55;;
25365;SDS011;13315;48.274;-1.900;2024-02-15T05:29:11;5.45;;;5.07;;
25365;SDS011;13315;48.274;-1.900;2024-02-15T05:31:38;8.43;;;4.45;;
25365;SDS011;13315;48.274;-1.900;2024-02-15T05:34:05;5.53;;;5.13;;
25365;SDS011;13315;48.274;-1.900;2024-02-15T05:36:36;5.10;;;4.78;;
25365;SDS011;13315;48.274;-1.900;2024-02-15T05:39:03;4.68;;;4.38;;
25365;SDS011;13315;48.274;-1.900;2024-02-15T05:41:30;5.60;;;5.10;;
25365;SDS011;13315;48.274;-1.900;2024-02-15T05:43:57;4.32;;;4.07;;
25365;SDS011;13315;48.274;-1.900;2024-02-15T05:46:24;5.65;;;5.32;;
25365;SDS011;13315;48.274;-1.900;2024-02-15T05:48:52;5.43;;;5.13;;
25365;SDS011;13315;48.274;-1.900;2024-02-15T05:51:19;5.13;;;4.82;;
25365;SDS011;13315;48.274;-1.900;2024-02-15T05:53:45;5.03;;;4.50;;
25365;SDS011;13315;48.274;-1.900;2024-02-15T05:56:11;6.55;;;5.72;;
25365;SDS011;13315;48.274;-1.900;2024-02-15T05:58:37;4.43;;;4.22;;
25365;SDS011;13315;48.274;-1.900;2024-02-15T06:01:05;5.75;;;4.55;;
25365;SDS011;13315;48.274;-1.900;2024-02-15T06:03:32;4.80;;;4.50;;
25365;SDS011;13315;48.274;-1.900;2024-02-15T06:06:01;4.70;;;4.28;;
25365;SDS011;13315;48.274;-1.900;2024-02-15T06:08:31;4.88;;;4.43;;
25365;SDS011;13315;48.274;-1.900;2024-02-15T06:10:57;4.55;;;4.20;;
25365;SDS011;13315;48.274;-1.900;2024-02-15T06:13:25;11.63;;;4.68;;
25365;SDS011;13315;48.274;-1.900;2024-02-15T06:15:52;5.45;;;4.95;;
25365;SDS011;13315;48.274;-1.900;2024-02-15T06:18:23;4.15;;;3.92;;
25365;SDS011;13315;48.274;-1.900;2024-02-15T06:20:50;4.20;;;4.00;;
25365;SDS011;13315;48.274;-1.900;2024-02-15T06:23:16;4.72;;;4.43;;
25365;SDS011;13315;48.274;-1.900;2024-02-15T06:25:43;4.85;;;4.65;;
25365;SDS011;13315;48.274;-1.900;2024-02-15T06:28:09;4.05;;;3.85;;
25365;SDS011;13315;48.274;-1.900;2024-02-15T06:30:44;4.50;;;4.18;;
25365;SDS011;13315;48.274;-1.900;2024-02-15T06:33:29;4.30;;;3.95;;
25365;SDS011;13315;48.274;-1.900;2024-02-15T06:36:14;4.05;;;3.75;;
25365;SDS011;13315;48.274;-1.900;2024-02-15T06:38:58;4.22;;;4.03;;
25365;SDS011;13315;48.274;-1.900;2024-02-15T06:41:43;4.85;;;4.55;;
25365;SDS011;13315;48.274;-1.900;2024-02-15T06:44:09;4.20;;;3.90;;
25365;SDS011;13315;48.274;-1.900;2024-02-15T06:46:37;4.82;;;4.43;;
25365;SDS011;13315;48.274;-1.900;2024-02-15T06:49:03;4.63;;;4.32;;
25365;SDS011;13315;48.274;-1.900;2024-02-15T06:51:30;3.33;;;3.13;;
25365;SDS011;13315;48.274;-1.900;2024-02-15T06:53:56;4.50;;;4.25;;
25365;SDS011;13315;48.274;-1.900;2024-02-15T06:56:22;4.75;;;4.43;;
25365;SDS011;13315;48.274;-1.900;2024-02-15T06:58:49;3.70;;;3.50;;
25365;SDS011;13315;48.274;-1.900;2024-02-15T07:01:16;4.45;;;4.25;;
25365;SDS011;13315;48.274;-1.900;2024-02-15T07:03:43;4.20;;;3.90;;
25365;SDS011;13315;48.274;-1.900;2024-02-15T07:06:10;3.40;;;3.20;;
25365;SDS011;13315;48.274;-1.900;2024-02-15T07:08:38;3.55;;;3.35;;
25365;SDS011;13315;48.274;-1.900;2024-02-15T07:11:06;4.45;;;4.18;;
25365;SDS011;13315;48.274;-1.900;2024-02-15T07:13:34;4.18;;;3.67;;
25365;SDS011;13315;48.274;-1.900;2024-02-15T07:16:01;4.93;;;4.60;;
25365;SDS011;13315;48.274;-1.900;2024-02-15T07:18:28;4.88;;;4.47;;
25365;SDS011;13315;48.274;-1.900;2024-02-15T07:20:54;3.53;;;3.33;;
25365;SDS011;13315;48.274;-1.900;2024-02-15T07:23:23;4.13;;;3.92;;
25365;SDS011;13315;48.274;-1.900;2024-02-15T07:25:50;4.13;;;3.83;;
25365;SDS011;13315;48.274;-1.900;2024-02-15T07:28:18;3.90;;;3.60;;
25365;SDS011;13315;48.274;-1.900;2024-02-15T07:30:45;4.38;;;4.10;;
25365;SDS011;13315;48.274;-1.900;2024-02-15T07:33:14;4.50;;;4.20;;
25365;SDS011;13315;48.274;-1.900;2024-02-15T07:35:43;4.25;;;4.05;;
25365;SDS011;13315;48.274;-1.900;2024-02-15T07:38:09;4.00;;;3.80;;
25365;SDS011;13315;48.274;-1.900;2024-02-15T07:40:36;5.18;;;4.65;;
25365;SDS011;13315;48.274;-1.900;2024-02-15T07:43:04;4.43;;;4.13;;
25365;SDS011;13315;48.274;-1.900;2024-02-15T07:45:31;3.95;;;3.75;;
25365;SDS011;13315;48.274;-1.900;2024-02-15T07:48:00;4.00;;;3.80;;
25365;SDS011;13315;48.274;-1.900;2024-02-15T07:50:29;5.35;;;3.53;;
25365;SDS011;13315;48.274;-1.900;2024-02-15T07:52:55;4.03;;;3.70;;
25365;SDS011;13315;48.274;-1.900;2024-02-15T07:55:21;3.75;;;3.35;;
25365;SDS011;13315;48.274;-1.900;2024-02-15T07:57:49;3.20;;;3.00;;
25365;SDS011;13315;48.274;-1.900;2024-02-15T08:00:15;2.90;;;2.80;;
25365;SDS011;13315;48.274;-1.900;2024-02-15T08:02:42;3.35;;;3.05;;
25365;SDS011;13315;48.274;-1.900;2024-02-15T08:05:11;2.72;;;2.58;;
25365;SDS011;13315;48.274;-1.900;2024-02-15T08:07:42;6.57;;;2.80;;
25365;SDS011;13315;48.274;-1.900;2024-02-15T08:10:09;3.05;;;2.85;;
25365;SDS011;13315;48.274;-1.900;2024-02-15T08:12:44;3.25;;;3.05;;
25365;SDS011;13315;48.274;-1.900;2024-02-15T08:15:10;6.22;;;3.13;;
25365;SDS011;13315;48.274;-1.900;2024-02-15T08:17:37;3.30;;;3.03;;
25365;SDS011;13315;48.274;-1.900;2024-02-15T08:20:05;3.05;;;2.85;;
25365;SDS011;13315;48.274;-1.900;2024-02-15T08:22:32;3.55;;;3.30;;
25365;SDS011;13315;48.274;-1.900;2024-02-15T08:24:58;3.47;;;3.22;;
25365;SDS011;13315;48.274;-1.900;2024-02-15T08:27:24;2.70;;;2.60;;
25365;SDS011;13315;48.274;-1.900;2024-02-15T08:29:50;4.13;;;3.78;;
25365;SDS011;13315;48.274;-1.900;2024-02-15T08:32:17;2.65;;;2.55;;
25365;SDS011;13315;48.274;-1.900;2024-02-15T08:34:43;2.90;;;2.70;;
25365;SDS011;13315;48.274;-1.900;2024-02-15T08:37:09;3.45;;;3.25;;
25365;SDS011;13315;48.274;-1.900;2024-02-15T08:39:36;3.13;;;2.92;;
25365;SDS011;13315;48.274;-1.900;2024-02-15T08:42:02;3.15;;;2.95;;
25365;SDS011;13315;48.274;-1.900;2024-02-15T08:44:29;2.78;;;2.58;;
25365;SDS011;13315;48.274;-1.900;2024-02-15T08:46:55;4.10;;;3.03;;
25365;SDS011;13315;48.274;-1.900;2024-02-15T08:49:21;3.97;;;3.20;;
25365;SDS011;13315;48.274;-1.900;2024-02-15T08:51:47;2.85;;;2.72;;
25365;SDS011;13315;48.274;-1.900;2024-02-15T08:54:14;2.72;;;2.53;;
25365;SDS011;13315;48.274;-1.900;2024-02-15T08:56:40;3.47;;;3.10;;
25365;SDS011;13315;48.274;-1.900;2024-02-15T08:59:06;3.05;;;2.72;;
25365;SDS011;13315;48.274;-1.900;2024-02-15T09:01:32;2.70;;;2.53;;
25365;SDS011;13315;48.274;-1.900;2024-02-15T09:03:58;3.28;;;2.75;;
25365;SDS011;13315;48.274;-1.900;2024-02-15T09:06:24;2.53;;;2.42;;
25365;SDS011;13315;48.274;-1.900;2024-02-15T09:08:51;2.50;;;2.40;;
25365;SDS011;13315;48.274;-1.900;2024-02-15T09:11:17;5.05;;;2.65;;
25365;SDS011;13315;48.274;-1.900;2024-02-15T09:13:44;3.13;;;2.88;;
25365;SDS011;13315;48.274;-1.900;2024-02-15T09:16:10;2.80;;;2.60;;
25365;SDS011;13315;48.274;-1.900;2024-02-15T09:18:36;3.85;;;3.40;;
25365;SDS011;13315;48.274;-1.900;2024-02-15T09:21:05;3.00;;;2.85;;
25365;SDS011;13315;48.274;-1.900;2024-02-15T09:23:32;3.63;;;3.42;;
25365;SDS011;13315;48.274;-1.900;2024-02-15T09:25:58;3.45;;;3.25;;
25365;SDS011;13315;48.274;-1.900;2024-02-15T09:28:24;2.80;;;2.70;;
25365;SDS011;13315;48.274;-1.900;2024-02-15T09:30:50;3.30;;;3.10;;
25365;SDS011;13315;48.274;-1.900;2024-02-15T09:33:17;4.63;;;3.58;;
25365;SDS011;13315;48.274;-1.900;2024-02-15T09:35:44;3.88;;;3.58;;
25365;SDS011;13315;48.274;-1.900;2024-02-15T09:38:10;3.42;;;3.22;;
25365;SDS011;13315;48.274;-1.900;2024-02-15T09:40:36;3.00;;;2.80;;
25365;SDS011;13315;48.274;-1.900;2024-02-15T09:43:02;3.00;;;2.90;;
25365;SDS011;13315;48.274;-1.900;2024-02-15T09:45:29;2.75;;;2.65;;
25365;SDS011;13315;48.274;-1.900;2024-02-15T09:47:56;2.90;;;2.70;;
25365;SDS011;13315;48.274;-1.900;2024-02-15T09:50:26;2.78;;;2.67;;
25365;SDS011;13315;48.274;-1.900;2024-02-15T09:52:55;3.22;;;3.03;;
25365;SDS011;13315;48.274;-1.900;2024-02-15T09:55:21;5.90;;;4.60;;
25365;SDS011;13315;48.274;-1.900;2024-02-15T09:57:48;3.20;;;2.97;;
25365;SDS011;13315;48.274;-1.900;2024-02-15T10:00:16;2.55;;;2.45;;
25365;SDS011;13315;48.274;-1.900;2024-02-15T10:02:43;3.15;;;2.90;;
25365;SDS011;13315;48.274;-1.900;2024-02-15T10:05:12;3.10;;;2.90;;
25365;SDS011;13315;48.274;-1.900;2024-02-15T10:07:42;2.78;;;2.60;;
25365;SDS011;13315;48.274;-1.900;2024-02-15T10:12:42;2.50;;;2.40;;
25365;SDS011;13315;48.274;-1.900;2024-02-15T10:15:34;2.47;;;2.38;;
25365;SDS011;13315;48.274;-1.900;2024-02-15T10:18:00;3.42;;;3.13;;
25365;SDS011;13315;48.274;-1.900;2024-02-15T10:20:27;2.45;;;2.35;;
25365;SDS011;13315;48.274;-1.900;2024-02-15T10:22:53;5.10;;;3.92;;
25365;SDS011;13315;48.274;-1.900;2024-02-15T10:25:35;3.15;;;2.95;;
25365;SDS011;13315;48.274;-1.900;2024-02-15T10:28:06;2.58;;;2.47;;
25365;SDS011;13315;48.274;-1.900;2024-02-15T10:30:39;3.17;;;3.00;;
25365;SDS011;13315;48.274;-1.900;2024-02-15T10:33:09;4.00;;;3.08;;
25365;SDS011;13315;48.274;-1.900;2024-02-15T10:35:36;7.22;;;3.28;;
25365;SDS011;13315;48.274;-1.900;2024-02-15T10:38:09;2.47;;;2.38;;
25365;SDS011;13315;48.274;-1.900;2024-02-15T10:40:39;2.55;;;2.45;;
25365;SDS011;13315;48.274;-1.900;2024-02-15T10:43:09;3.17;;;2.97;;
25365;SDS011;13315;48.274;-1.900;2024-02-15T10:45:38;2.88;;;2.67;;
25365;SDS011;13315;48.274;-1.900;2024-02-15T10:48:08;2.50;;;2.40;;
25365;SDS011;13315;48.274;-1.900;2024-02-15T10:53:02;16.80;;;15.60;;
25365;SDS011;13315;48.274;-1.900;2024-02-15T10:55:40;3.00;;;2.83;;
25365;SDS011;13315;48.274;-1.900;2024-02-15T10:58:06;4.40;;;2.45;;
25365;SDS011;13315;48.274;-1.900;2024-02-15T11:00:33;2.35;;;2.25;;
25365;SDS011;13315;48.274;-1.900;2024-02-15T11:03:05;3.80;;;2.80;;
25365;SDS011;13315;48.274;-1.900;2024-02-15T11:05:36;2.90;;;2.80;;
25365;SDS011;13315;48.274;-1.900;2024-02-15T11:08:04;2.53;;;2.42;;
25365;SDS011;13315;48.274;-1.900;2024-02-15T11:10:31;2.88;;;2.67;;
25365;SDS011;13315;48.274;-1.900;2024-02-15T11:12:59;6.75;;;3.13;;
25365;SDS011;13315;48.274;-1.900;2024-02-15T11:15:44;12.57;;;11.88;;
25365;SDS011;13315;48.274;-1.900;2024-02-15T11:20:59;13.02;;;12.23;;
25365;SDS011;13315;48.274;-1.900;2024-02-15T11:23:26;11.80;;;11.10;;
25365;SDS011;13315;48.274;-1.900;2024-02-15T11:25:52;11.95;;;11.05;;
25365;SDS011;13315;48.274;-1.900;2024-02-15T11:30:50;9.52;;;9.02;;
25365;SDS011;13315;48.274;-1.900;2024-02-15T11:33:28;17.42;;;15.98;;
25365;SDS011;13315;48.274;-1.900;2024-02-15T11:36:04;16.25;;;15.20;;
25365;SDS011;13315;48.274;-1.900;2024-02-15T11:38:34;16.70;;;15.70;;
25365;SDS011;13315;48.274;-1.900;2024-02-15T11:41:01;17.45;;;16.35;;
25365;SDS011;13315;48.274;-1.900;2024-02-15T11:46:21;16.67;;;15.57;;
25365;SDS011;13315;48.274;-1.900;2024-02-15T11:48:50;14.50;;;13.70;;
25365;SDS011;13315;48.274;-1.900;2024-02-15T11:54:01;15.85;;;14.85;;
25365;SDS011;13315;48.274;-1.900;2024-02-15T11:56:33;17.70;;;16.70;;
25365;SDS011;13315;48.274;-1.900;2024-02-15T11:59:18;17.58;;;16.38;;
25365;SDS011;13315;48.274;-1.900;2024-02-15T12:01:58;16.65;;;15.68;;
25365;SDS011;13315;48.274;-1.900;2024-02-15T12:04:43;2.92;;;2.83;;
25365;SDS011;13315;48.274;-1.900;2024-02-15T12:07:28;2.72;;;2.30;;
25365;SDS011;13315;48.274;-1.900;2024-02-15T12:10:19;3.13;;;2.88;;
25365;SDS011;13315;48.274;-1.900;2024-02-15T12:13:04;2.20;;;2.10;;
25365;SDS011;13315;48.274;-1.900;2024-02-15T12:16:01;2.25;;;2.15;;
25365;SDS011;13315;48.274;-1.900;2024-02-15T12:18:46;1.95;;;1.85;;
25365;SDS011;13315;48.274;-1.900;2024-02-15T12:21:17;2.58;;;2.38;;
25365;SDS011;13315;48.274;-1.900;2024-02-15T12:23:44;3.72;;;2.53;;
25365;SDS011;13315;48.274;-1.900;2024-02-15T12:26:10;2.65;;;2.50;;
25365;SDS011;13315;48.274;-1.900;2024-02-15T12:31:08;2.10;;;2.00;;
25365;SDS011;13315;48.274;-1.900;2024-02-15T12:33:35;3.60;;;2.95;;
25365;SDS011;13315;48.274;-1.900;2024-02-15T12:36:05;1.85;;;1.80;;
25365;SDS011;13315;48.274;-1.900;2024-02-15T12:38:32;2.95;;;2.60;;
25365;SDS011;13315;48.274;-1.900;2024-02-15T12:40:59;2.78;;;2.58;;
25365;SDS011;13315;48.274;-1.900;2024-02-15T12:43:27;11.35;;;3.28;;
25365;SDS011;13315;48.274;-1.900;2024-02-15T12:46:02;2.42;;;2.33;;
25365;SDS011;13315;48.274;-1.900;2024-02-15T12:48:31;2.90;;;2.70;;
25365;SDS011;13315;48.274;-1.900;2024-02-15T12:50:57;2.35;;;2.25;;
25365;SDS011;13315;48.274;-1.900;2024-02-15T12:53:24;3.23;;;2.90;;
25365;SDS011;13315;48.274;-1.900;2024-02-15T12:55:55;3.75;;;2.53;;
25365;SDS011;13315;48.274;-1.900;2024-02-15T12:58:22;2.78;;;2.60;;
25365;SDS011;13315;48.274;-1.900;2024-02-15T13:00:54;2.67;;;2.53;;
25365;SDS011;13315;48.274;-1.900;2024-02-15T13:03:23;2.75;;;2.58;;
25365;SDS011;13315;48.274;-1.900;2024-02-15T13:05:49;6.30;;;2.25;;
25365;SDS011;13315;48.274;-1.900;2024-02-15T13:08:16;4.28;;;3.45;;
25365;SDS011;13315;48.274;-1.900;2024-02-15T13:10:43;2.20;;;2.10;;
25365;SDS011;13315;48.274;-1.900;2024-02-15T13:13:10;2.63;;;2.42;;
25365;SDS011;13315;48.274;-1.900;2024-02-15T13:15:36;4.15;;;2.58;;
25365;SDS011;13315;48.274;-1.900;2024-02-15T13:18:02;2.92;;;2.72;;
25365;SDS011;13315;48.274;-1.900;2024-02-15T13:20:35;2.22;;;2.13;;
25365;SDS011;13315;48.274;-1.900;2024-02-15T13:23:06;2.90;;;2.73;;
25365;SDS011;13315;48.274;-1.900;2024-02-15T13:25:33;2.42;;;2.33;;
25365;SDS011;13315;48.274;-1.900;2024-02-15T13:28:01;2.43;;;2.33;;
25365;SDS011;13315;48.274;-1.900;2024-02-15T13:30:29;2.78;;;2.58;;
25365;SDS011;13315;48.274;-1.900;2024-02-15T13:32:55;2.92;;;2.72;;
25365;SDS011;13315;48.274;-1.900;2024-02-15T13:35:21;3.38;;;2.60;;
25365;SDS011;13315;48.274;-1.900;2024-02-15T13:37:52;3.25;;;3.05;;
25365;SDS011;13315;48.274;-1.900;2024-02-15T13:40:19;9.45;;;3.05;;
25365;SDS011;13315;48.274;-1.900;2024-02-15T13:42:49;3.15;;;2.90;;
25365;SDS011;13315;48.274;-1.900;2024-02-15T13:45:18;2.80;;;2.67;;
25365;SDS011;13315;48.274;-1.900;2024-02-15T13:47:45;5.15;;;3.15;;
25365;SDS011;13315;48.274;-1.900;2024-02-15T13:50:21;2.20;;;2.10;;
25365;SDS011;13315;48.274;-1.900;2024-02-15T13:52:48;2.58;;;2.45;;
25365;SDS011;13315;48.274;-1.900;2024-02-15T13:55:15;2.40;;;2.30;;
25365;SDS011;13315;48.274;-1.900;2024-02-15T13:57:43;2.50;;;2.40;;
25365;SDS011;13315;48.274;-1.900;2024-02-15T14:00:09;4.57;;;3.78;;
25365;SDS011;13315;48.274;-1.900;2024-02-15T14:02:43;3.15;;;2.58;;
25365;SDS011;13315;48.274;-1.900;2024-02-15T14:05:09;9.15;;;2.40;;
25365;SDS011;13315;48.274;-1.900;2024-02-15T14:07:37;2.53;;;2.33;;
25365;SDS011;13315;48.274;-1.900;2024-02-15T14:10:06;2.20;;;2.10;;
25365;SDS011;13315;48.274;-1.900;2024-02-15T14:12:33;2.10;;;2.00;;
25365;SDS011;13315;48.274;-1.900;2024-02-15T14:15:00;2.92;;;2.67;;
25365;SDS011;13315;48.274;-1.900;2024-02-15T14:17:26;2.22;;;2.13;;
25365;SDS011;13315;48.274;-1.900;2024-02-15T14:19:53;2.20;;;2.10;;
25365;SDS011;13315;48.274;-1.900;2024-02-15T14:22:19;2.60;;;2.40;;
25365;SDS011;13315;48.274;-1.900;2024-02-15T14:24:48;2.00;;;1.90;;
25365;SDS011;13315;48.274;-1.900;2024-02-15T14:27:14;2.38;;;1.98;;
25365;SDS011;13315;48.274;-1.900;2024-02-15T14:29:41;2.33;;;2.22;;
25365;SDS011;13315;48.274;-1.900;2024-02-15T14:32:30;2.83;;;2.63;;
25365;SDS011;13315;48.274;-1.900;2024-02-15T14:35:14;2.40;;;2.22;;
25365;SDS011;13315;48.274;-1.900;2024-02-15T14:37:42;2.33;;;2.22;;
25365;SDS011;13315;48.274;-1.900;2024-02-15T14:40:08;2.97;;;2.67;;
25365;SDS011;13315;48.274;-1.900;2024-02-15T14:42:35;2.13;;;2.03;;
25365;SDS011;13315;48.274;-1.900;2024-02-15T14:45:02;17.77;;;2.45;;
25365;SDS011;13315;48.274;-1.900;2024-02-15T14:47:29;1.92;;;1.83;;
25365;SDS011;13315;48.274;-1.900;2024-02-15T14:49:55;2.42;;;2.30;;
25365;SDS011;13315;48.274;-1.900;2024-02-15T14:52:21;2.22;;;2.13;;
25365;SDS011;13315;48.274;-1.900;2024-02-15T14:54:47;3.05;;;2.75;;
25365;SDS011;13315;48.274;-1.900;2024-02-15T14:57:13;2.47;;;2.30;;
25365;SDS011;13315;48.274;-1.900;2024-02-15T14:59:39;4.50;;;3.85;;